Latest Weather Observations for Ernabella/Pukatja

IDS60801

Issued at 2:51 pm CDT Monday 18 November 2019 (issued every 10 minutes, with the page automatically refreshed every 10 minutes)

About weather observations | Map of weather stations | Latest weather observations for SA | Other Formats
Station Details ID: 016097 Name: PUKATJA Lat: -26.26 Lon: 132.18 Height: 703.2 m
Data from the previous 72 hours. | See also: Recent months at Ernabella/Pukatja
Date/Time
CDT
Temp
°C
App
Temp
°C
Dew
Point
°C
Rel
Hum
%
Delta-T
°C
Wind Press
QNH
hPa
Press
MSL
hPa
Rain since
9am
mm
Dir  Spd
km/h
Gust
km/h
Spd
kts
Gust
kts
18/02:30pm 34.7 29.1 -6.1 7 18.8 E 15 26 8 14 1018.5 1014.3 0.0
18/02:00pm 33.6 27.6 -6.9 7 18.3 ENE 17 26 9 14 1018.9 1014.7 0.0
18/01:30pm 32.6 27.4 -5.9 8 17.5 NE 13 28 7 15 1019.3 1015.1 0.0
18/01:00pm 33.1 27.6 -5.5 8 17.8 ENE 15 26 8 14 1019.7 1015.6 0.0
18/12:30pm 31.5 26.0 -5.2 9 16.7 ENE 15 26 8 14 1020.1 1015.9 0.0
18/12:00pm 30.6 25.2 -4.4 10 16.1 NE 15 26 8 14 1020.6 1016.4 0.0
18/11:30am 30.4 24.6 -4.6 10 16.0 NNE 17 24 9 13 1020.9 1016.8 0.0
18/11:00am 29.6 23.9 -3.9 11 15.4 NE 17 24 9 13 1021.1 1017.0 0.0
18/10:30am 28.8 23.1 -3.4 12 14.8 NNE 17 24 9 13 1021.2 1017.1 0.0
18/10:00am 28.7 23.0 -3.5 12 14.8 NE 17 24 9 13 1021.2 1017.1 0.0
18/09:30am 27.1 21.4 -3.7 13 13.9 NE 17 22 9 12 1021.5 1017.3 0.0
18/09:00am 25.7 20.5 -2.8 15 12.9 NE 15 22 8 12 1021.6 1017.4 0.0
18/08:30am 24.8 20.0 -2.7 16 12.4 ENE 13 17 7 9 1021.5 1017.3 0.0
18/08:00am 23.1 19.1 -2.5 18 11.5 ENE 9 13 5 7 1021.3 1017.2 0.0
18/07:30am 21.6 17.7 -1.6 21 10.4 E 9 11 5 6 1021.2 1017.1 0.0
18/07:00am 19.2 15.3 -1.8 24 9.2 ESE 9 11 5 6 1020.9 1016.8 0.0
18/06:30am 19.2 14.9 -1.8 24 9.2 ESE 11 11 6 6 1020.5 1016.3 0.0
18/06:00am 19.5 15.6 -1.6 24 9.3 E 9 11 5 6 1020.2 1016.0 0.0
18/05:30am 19.7 15.4 -1.4 24 9.4 ESE 11 13 6 7 1019.8 1015.7 0.0
18/05:00am 19.8 15.8 -1.9 23 9.6 E 9 9 5 5 1019.7 1015.6 0.0
18/04:30am 19.9 16.3 -1.8 23 9.6 E 7 9 4 5 1019.8 1015.7 0.0
18/04:00am 20.0 16.5 -1.7 23 9.6 ENE 7 9 4 5 1019.7 1015.6 0.0
18/03:30am 19.9 15.9 -2.4 22 9.7 E 9 11 5 6 1019.8 1015.7 0.0
18/03:00am 21.2 17.2 -2.0 21 10.3 E 9 9 5 5 1020.0 1015.8 0.0
18/02:30am 21.6 17.8 -1.0 22 10.3 NE 9 11 5 6 1020.2 1016.0 0.0
18/02:00am 20.7 16.7 -2.4 21 10.2 NE 9 11 5 6 1020.5 1016.3 0.0
18/01:30am 21.7 18.0 -2.9 19 10.8 ENE 7 9 4 5 1020.8 1016.7 0.0
18/01:00am 22.9 18.9 -2.6 18 11.4 ENE 9 11 5 6 1020.9 1016.8 0.0
18/12:30am 23.1 19.1 -2.5 18 11.4 ENE 9 11 5 6 1021.1 1017.0 0.0
18/12:00am 24.1 19.6 -3.3 16 12.2 ENE 11 13 6 7 1021.2 1017.1 0.0
 
Date/Time
CDT
Temp
°C
App
Temp
°C
Dew
Point
°C
Rel
Hum
%
Delta-T
°C
Wind Press
QNH
hPa
Press
MSL
hPa
Rain since
9am
mm
Dir  Spd
km/h
Gust
km/h
Spd
kts
Gust
kts
17/11:30pm 26.1 21.2 -3.5 14 13.3 E 13 19 7 10 1021.2 1017.1 0.0
17/11:00pm 26.1 21.1 -4.4 13 13.5 ESE 13 19 7 10 1021.1 1017.0 0.0
17/10:30pm 27.3 21.9 -4.6 12 14.2 ESE 15 19 8 10 1021.1 1017.0 0.0
17/10:00pm 28.2 21.9 -6.3 10 15.1 ESE 19 28 10 15 1021.0 1016.9 0.0
17/09:30pm 28.6 22.5 -7.3 9 15.4 ESE 17 24 9 13 1020.7 1016.6 0.0
17/09:00pm 28.5 22.9 -6.0 10 15.1 ESE 15 20 8 11 1020.5 1016.3 0.0
17/08:30pm 29.2 23.6 -6.9 9 15.7 ESE 15 20 8 11 1020.2 1016.0 0.0
17/08:00pm 30.0 24.3 -7.8 8 16.3 ESE 15 20 8 11 1019.7 1015.6 0.0
17/07:30pm 31.4 25.2 -8.5 7 17.2 SE 17 26 9 14 1019.5 1015.4 0.0
17/07:00pm 32.1 25.6 -8.0 7 17.6 SE 19 26 10 14 1019.3 1015.1 0.0
17/06:30pm 32.5 26.0 -7.7 7 17.7 SE 19 30 10 16 1019.2 1015.0 0.0
17/06:00pm 33.2 27.1 -7.2 7 18.1 SE 17 28 9 15 1019.2 1015.0 0.0
17/05:30pm 33.2 27.9 -7.2 7 18.1 E 13 24 7 13 1019.1 1014.9 0.0
17/05:00pm 33.3 27.1 -9.1 6 18.4 E 17 30 9 16 1019.2 1015.0 0.0
17/04:30pm 33.5 27.3 -9.0 6 18.5 ESE 17 32 9 17 1019.2 1015.0 0.0
17/04:00pm 33.1 28.0 -9.2 6 18.3 SE 11 20 6 11 1019.4 1015.3 0.0
17/03:30pm 32.1 26.7 -8.0 7 17.5 SE 13 24 7 13 1019.7 1015.6 0.0
17/03:00pm 32.0 26.2 -8.1 7 17.5 SSE 15 28 8 15 1020.1 1015.9 0.0
17/02:30pm 32.4 26.3 -7.8 7 17.7 SE 17 30 9 16 1020.4 1016.2 0.0
17/02:00pm 31.9 26.7 -6.4 8 17.2 SSE 13 26 7 14 1020.8 1016.7 0.0
17/01:30pm 30.4 24.8 -6.0 9 16.2 SSE 15 28 8 15 1021.3 1017.2 0.0
17/01:00pm 31.1 25.2 -5.5 9 16.6 SSE 17 30 9 16 1021.9 1017.7 0.0
17/12:30pm 29.8 24.1 -3.8 11 15.5 ENE 17 26 9 14 1022.1 1018.0 0.0
17/12:00pm 28.5 24.1 -2.6 13 14.5 ESE 11 24 6 13 1022.5 1018.4 0.0
17/11:30am 27.7 22.6 -2.2 14 13.9 ENE 15 22 8 12 1022.8 1018.7 0.0
17/11:00am 27.6 22.8 -2.3 14 13.9 ENE 13 20 7 11 1023.1 1018.9 0.0
17/10:30am 26.9 21.4 -1.9 15 13.4 ENE 17 30 9 16 1023.0 1018.8 0.0
17/10:00am 26.1 20.7 -1.7 16 13.0 ENE 17 20 9 11 1023.1 1018.9 0.0
17/09:30am 25.6 20.2 -1.2 17 12.5 ENE 17 24 9 13 1023.1 1018.9 0.0
17/09:00am 24.3 18.4 -0.8 19 11.7 E 20 26 11 14 1023.3 1019.2 0.0
17/08:30am 23.6 18.5 -2.1 18 11.6 ESE 15 20 8 11 1023.3 1019.2 0.0
17/08:00am 22.8 18.1 -2.0 19 11.2 ESE 13 19 7 10 1023.2 1019.0 0.0
17/07:30am 20.7 17.4 -1.1 23 9.8 ENE 6 11 3 6 1022.8 1018.7 0.0
17/07:00am 18.4 14.8 -2.0 25 8.9 W 7 13 4 7 1022.5 1018.4 0.0
17/06:30am 20.2 16.3 -1.6 23 9.7 SE 9 15 5 8 1022.1 1018.0 0.0
17/06:00am 20.2 16.3 -1.6 23 9.7 ENE 9 13 5 7 1021.9 1017.7 0.0
17/05:30am 20.4 16.9 -1.4 23 9.7 ENE 7 13 4 7 1021.8 1017.6 0.0
17/05:00am 21.0 17.5 -1.5 22 10.1 SE 7 13 4 7 1021.7 1017.5 0.0
17/04:30am 21.7 18.1 -2.2 20 10.6 E 7 15 4 8 1021.6 1017.4 0.0
17/04:00am 23.2 17.1 -2.4 18 11.5 SE 20 30 11 16 1021.5 1017.3 0.0
17/03:30am 23.4 17.3 -2.2 18 11.5 SE 20 28 11 15 1021.5 1017.3 0.0
17/03:00am 23.6 17.4 -2.8 17 11.8 SE 20 32 11 17 1021.6 1017.4 0.0
17/02:30am 24.1 17.9 -3.3 16 12.2 SE 20 28 11 15 1021.9 1017.7 0.0
17/02:00am 24.8 18.7 -2.7 16 12.5 SE 20 32 11 17 1022.0 1017.9 0.0
17/01:30am 25.1 19.2 -2.5 16 12.5 SE 19 26 10 14 1022.3 1018.2 0.0
17/01:00am 25.6 19.9 -3.8 14 13.1 SSE 17 24 9 13 1022.4 1018.3 0.0
17/12:30am 26.0 20.2 -4.5 13 13.5 SSE 17 22 9 12 1022.4 1018.3 0.0
17/12:00am 26.0 20.6 -4.5 13 13.5 SE 15 20 8 11 1022.5 1018.4 0.0
 
Date/Time
CDT
Temp
°C
App
Temp
°C
Dew
Point
°C
Rel
Hum
%
Delta-T
°C
Wind Press
QNH
hPa
Press
MSL
hPa
Rain since
9am
mm
Dir  Spd
km/h
Gust
km/h
Spd
kts
Gust
kts
16/11:30pm 26.6 21.1 -5.1 12 13.9 SSE 15 19 8 10 1022.3 1018.2 0.0
16/11:00pm 26.9 21.5 -4.9 12 14.1 SSE 15 19 8 10 1022.1 1018.0 0.0
16/10:30pm 28.1 22.1 -6.3 10 15.0 SE 17 26 9 14 1021.8 1017.6 0.0
16/10:00pm 28.1 22.5 -6.3 10 15.0 SSE 15 20 8 11 1021.3 1017.2 0.0
16/09:30pm 29.0 23.0 -7.0 9 15.6 SSE 17 28 9 15 1021.0 1016.9 0.0
16/09:00pm 29.4 23.4 -6.7 9 15.8 SSE 17 24 9 13 1020.6 1016.4 0.0
16/08:30pm 30.3 23.6 -7.6 8 16.4 SSE 20 28 11 15 1020.1 1015.9 0.0
16/08:00pm 30.8 24.2 -7.2 8 16.7 SSE 20 35 11 19 1019.7 1015.6 0.0
16/07:30pm 31.8 25.2 -6.5 8 17.1 SSE 20 30 11 16 1019.4 1015.3 0.0
16/07:00pm 32.4 25.9 -7.8 7 17.7 SE 19 37 10 20 1019.1 1014.9 0.0
16/06:30pm 33.1 25.9 -9.2 6 18.3 S 22 32 12 17 1019.0 1014.8 0.0
16/06:00pm 32.9 26.1 -9.4 6 18.2 S 20 33 11 18 1018.9 1014.7 0.0
16/05:30pm 33.9 26.8 -8.7 6 18.7 SSE 22 37 12 20 1018.8 1014.6 0.0
16/05:00pm 33.2 26.4 -9.2 6 18.4 S 20 35 11 19 1018.8 1014.6 0.0
16/04:30pm 33.5 26.2 -11.2 5 18.8 SSE 22 41 12 22 1018.8 1014.6 0.0
16/04:00pm 33.8 25.9 -8.7 6 18.7 SSW 26 37 14 20 1018.9 1014.7 0.0
16/03:30pm 32.9 25.3 -9.4 6 18.2 SSW 24 35 13 19 1019.2 1015.0 0.0
16/03:00pm 33.2 25.5 -11.5 5 18.6 SSW 24 43 13 23 1019.4 1015.3 0.0
16/02:30pm 32.7 27.6 -9.5 6 18.1 E 11 19 6 10 1019.6 1015.5 0.0
16/02:00pm 32.2 27.1 -9.9 6 17.9 WSW 11 22 6 12 1020.2 1016.0 0.0
16/01:30pm 31.9 26.5 -8.1 7 17.4 ESE 13 26 7 14 1020.5 1016.3 0.0
16/01:00pm 31.1 25.4 -7.0 8 16.8 S 15 26 8 14 1021.1 1017.0 0.0
16/12:30pm 30.4 24.3 -7.5 8 16.5 SE 17 24 9 13 1021.5 1017.3 0.0
16/12:00pm 30.0 25.6 -6.3 9 16.0 ESE 9 19 5 10 1021.8 1017.6 0.0
16/11:30am 29.9 24.4 -5.0 10 15.8 SSE 15 24 8 13 1022.0 1017.9 0.0
16/11:00am 28.1 23.1 -3.9 12 14.6 E 13 22 7 12 1022.3 1018.2 0.0
16/10:30am 26.9 22.1 -2.8 14 13.6 E 13 24 7 13 1022.5 1018.4 0.0
16/10:00am 26.5 20.6 -2.2 15 13.3 ENE 19 24 10 13 1022.7 1018.6 0.0
16/09:30am 25.0 20.0 -0.9 18 12.1 ENE 15 20 8 11 1022.8 1018.7 0.0
16/09:00am 24.2 19.0 -0.2 20 11.5 ENE 17 20 9 11 1022.7 1018.6 0.0
16/08:30am 23.7 19.7 0.7 22 11.0 ESE 11 19 6 10 1022.6 1018.5 0.0
16/08:00am 21.5 18.3 -0.5 23 10.1 ENE 6 7 3 4 1022.3 1018.2 0.0
16/07:30am 19.5 16.0 -1.6 24 9.3 E 7 9 4 5 1022.1 1018.0 0.0
16/07:00am 17.9 14.4 -1.3 27 8.4 NE 7 9 4 5 1021.7 1017.5 0.0
16/06:30am 17.5 14.1 -2.2 26 8.4 E 6 9 3 5 1021.3 1017.2 0.0
16/06:00am 19.9 14.9 -1.2 24 9.4 ESE 15 24 8 13 1021.0 1016.9 0.0
16/05:30am 20.0 13.6 -1.7 23 9.6 ESE 22 32 12 17 1020.7 1016.6 0.0
16/05:00am 21.0 12.9 -2.8 20 10.4 ESE 30 41 16 22 1020.4 1016.2 0.0
16/04:30am 21.3 13.5 -4.0 18 10.8 SE 28 41 15 22 1020.2 1016.0 0.0
16/04:00am 21.9 14.4 -5.0 16 11.4 SE 26 35 14 19 1020.1 1015.9 0.0
16/03:42am 22.5 14.5 -5.4 15 11.8 SSE 28 46 15 25 1020.0 1015.8 0.0
16/03:30am 22.5 14.5 -5.4 15 11.7 SE 28 37 15 20 1019.8 1015.7 0.0
16/03:00am 23.0 14.9 -6.9 13 12.3 SE 28 39 15 21 1019.7 1015.6 0.0
16/02:30am 23.3 15.4 -8.8 11 12.8 SE 26 33 14 18 1019.7 1015.6 0.0
16/02:00am 24.4 16.4 -10.5 9 13.6 SE 26 35 14 19 1019.8 1015.7 0.0
16/01:30am 25.4 18.6 -11.2 8 14.2 SE 19 26 10 14 1019.8 1015.7 0.0
16/01:00am 25.1 19.4 -13.1 7 14.3 ESE 13 17 7 9 1020.0 1015.8 0.0
16/12:30am 26.0 19.6 -12.4 7 14.7 SSE 17 20 9 11 1020.0 1015.8 0.0
16/12:00am 26.5 20.3 -13.9 6 15.1 SSE 15 20 8 11 1020.0 1015.8 0.0
 
Date/Time
CDT
Temp
°C
App
Temp
°C
Dew
Point
°C
Rel
Hum
%
Delta-T
°C
Wind Press
QNH
hPa
Press
MSL
hPa
Rain since
9am
mm
Dir  Spd
km/h
Gust
km/h
Spd
kts
Gust
kts
15/11:30pm 26.5 20.7 -13.9 6 15.1 SE 13 19 7 10 1020.0 1015.8 0.0
15/11:00pm 26.4 20.6 -14.0 6 15.1 SE 13 17 7 9 1019.7 1015.6 0.0
15/10:30pm 27.6 21.4 -15.4 5 15.9 SSE 15 20 8 11 1019.4 1015.3 0.0
15/10:00pm 27.3 21.4 -15.6 5 15.8 SSE 13 17 7 9 1019.1 1014.9 0.0
15/09:30pm 27.2 22.1 -15.7 5 15.7 SE 9 11 5 6 1018.6 1014.4 0.0
15/09:00pm 28.1 22.3 -15.0 5 16.1 S 13 17 7 9 1018.2 1014.1 0.0
15/08:30pm 28.9 23.0 -17.1 4 16.7 S 13 15 7 8 1017.9 1013.7 0.0
15/08:00pm 30.6 24.3 -16.0 4 17.6 SSW 15 22 8 12 1017.6 1013.4 0.0
15/07:30pm 31.7 25.7 -18.6 3 18.4 SSE 13 20 7 11 1017.2 1013.0 0.0
15/07:00pm 32.4 25.1 -18.2 3 18.8 SSW 20 30 11 16 1017.0 1012.8 0.0
15/06:30pm 33.3 27.3 -17.6 3 19.3 SW 13 17 7 9 1016.7 1012.5 0.0
15/06:00pm 33.0 27.8 -17.8 3 19.1 SSE 9 20 5 11 1016.6 1012.4 0.0
15/05:30pm 34.0 29.4 -17.1 3 19.6 W 6 17 3 9 1016.6 1012.4 0.0
15/05:00pm 33.5 26.8 -17.4 3 19.4 SSE 17 32 9 17 1016.6 1012.4 0.0
15/04:30pm 34.6 27.9 -16.7 3 19.9 SE 17 30 9 16 1016.8 1012.7 0.0
15/04:00pm 33.3 26.6 -17.6 3 19.3 ESE 17 26 9 14 1017.0 1012.8 0.0
15/03:30pm 33.3 27.0 -17.6 3 19.2 SE 15 30 8 16 1017.3 1013.1 0.0
15/03:00pm 32.4 26.6 -14.7 4 18.5 S 13 30 7 16 1017.6 1013.4 0.0

Other formats

Comma delimited format used in spreadsheet applications
http://www.bom.gov.au/fwo/IDS60801/IDS60801.94474.axf

JavaScript Object Notation format (JSON) in row-major order
http://www.bom.gov.au/fwo/IDS60801/IDS60801.94474.json

Data quality

Most of these data are generated automatically and are frequently updated. Quality checks on data are not normally performed. It is possible for incorrect values to appear. Refer to information at About Latest Weather Observations and please check the disclaimer before using these data.